createdAt,value
2018-10-16T00:01:53.713Z,79.03
2018-10-16T00:04:25.730Z,77.87
2018-10-16T00:06:55.395Z,80.87
2018-10-16T00:09:24.485Z,86.73
2018-10-16T00:12:04.341Z,78.53
2018-10-16T00:14:34.160Z,90.33
2018-10-16T00:17:05.837Z,77.67
2018-10-16T00:19:38.343Z,79.17
2018-10-16T00:22:10.564Z,83.47
2018-10-16T00:24:42.415Z,85.07
2018-10-16T00:27:11.510Z,91.70
2018-10-16T00:29:40.446Z,91.77
2018-10-16T00:32:15.949Z,99.83
2018-10-16T00:34:45.903Z,92.83
2018-10-16T00:37:16.042Z,94.47
2018-10-16T00:39:46.724Z,98.20
2018-10-16T00:42:16.287Z,86.43
2018-10-16T00:44:48.763Z,96.30
2018-10-16T00:47:22.561Z,97.53
2018-10-16T00:49:52.177Z,95.43
2018-10-16T00:52:21.187Z,93.03
2018-10-16T00:54:50.341Z,102.70
2018-10-16T00:57:20.224Z,84.77
2018-10-16T00:59:50.013Z,99.97
2018-10-16T01:02:19.133Z,90.53
2018-10-16T01:04:48.266Z,107.43
2018-10-16T01:07:17.403Z,98.73
2018-10-16T01:09:46.474Z,109.67
2018-10-16T01:12:15.325Z,98.60
2018-10-16T01:14:44.370Z,113.13
2018-10-16T01:17:13.452Z,103.57
2018-10-16T01:22:25.836Z,97.03
2018-10-16T01:24:54.888Z,107.93
2018-10-16T01:27:23.925Z,113.43
2018-10-16T01:29:52.941Z,118.83
2018-10-16T01:32:21.905Z,111.03
2018-10-16T01:34:51.812Z,115.17
2018-10-16T01:37:21.068Z,103.63
2018-10-16T01:39:50.114Z,114.53
2018-10-16T01:42:19.250Z,103.83
2018-10-16T01:44:48.406Z,108.30
2018-10-16T01:47:17.921Z,97.57
2018-10-16T01:49:47.830Z,116.13
2018-10-16T01:52:16.967Z,116.10
2018-10-16T01:54:46.728Z,111.07
2018-10-16T01:57:15.767Z,114.17
2018-10-16T01:59:44.890Z,112.03
2018-10-16T02:02:14.457Z,116.30
2018-10-16T02:04:43.551Z,110.13
2018-10-16T02:07:12.537Z,113.33
2018-10-16T02:09:41.528Z,111.27
2018-10-16T02:12:12.463Z,110.33
2018-10-16T02:14:42.379Z,99.30
2018-10-16T02:17:12.214Z,113.13
2018-10-16T02:19:41.409Z,116.63
2018-10-16T02:22:10.799Z,123.23
2018-10-16T02:24:39.788Z,131.60
2018-10-16T02:27:09.825Z,117.03
2018-10-16T02:29:39.652Z,110.97
2018-10-16T02:32:08.628Z,107.90
2018-10-16T02:34:39.250Z,128.50
2018-10-16T02:37:09.110Z,126.00
2018-10-16T02:39:38.348Z,125.77
2018-10-16T02:42:07.966Z,136.23
2018-10-16T02:44:37.992Z,127.20
2018-10-16T02:47:11.726Z,115.23
2018-10-16T02:49:41.084Z,109.97
2018-10-16T02:52:10.466Z,137.77
2018-10-16T02:54:39.888Z,129.30
2018-10-16T02:57:09.036Z,100.13
2018-10-16T02:59:41.925Z,109.27
2018-10-16T03:02:11.004Z,111.40
2018-10-16T03:04:40.086Z,101.70
2018-10-16T03:07:12.147Z,116.67
2018-10-16T03:09:41.112Z,125.17
2018-10-16T03:12:10.478Z,117.60
2018-10-16T03:14:39.757Z,132.83
2018-10-16T03:17:10.134Z,116.00
2018-10-16T03:19:39.277Z,106.27
2018-10-16T03:22:09.432Z,121.10
2018-10-16T03:24:38.587Z,122.83
2018-10-16T03:27:07.719Z,106.80
2018-10-16T03:29:36.931Z,104.80
2018-10-16T03:32:06.098Z,109.23
2018-10-16T03:34:35.279Z,108.23
2018-10-16T03:37:04.102Z,103.30
2018-10-16T03:39:33.738Z,125.50
2018-10-16T03:42:02.850Z,135.97
2018-10-16T03:44:31.838Z,137.30
2018-10-16T03:47:04.601Z,120.13
2018-10-16T03:49:33.718Z,121.23
2018-10-16T03:52:03.363Z,115.17
2018-10-16T03:54:32.965Z,111.83
2018-10-16T03:57:02.849Z,113.30
2018-10-16T03:59:34.253Z,113.50
2018-10-16T04:02:03.478Z,123.20
2018-10-16T04:04:32.834Z,117.23
2018-10-16T04:07:02.030Z,126.47
2018-10-16T04:09:33.342Z,137.50
2018-10-16T04:12:02.408Z,127.93
2018-10-16T04:14:31.486Z,140.93
2018-10-16T04:17:01.161Z,122.23
2018-10-16T04:19:30.143Z,122.40
2018-10-16T04:21:59.169Z,109.97
2018-10-16T04:24:28.201Z,115.67
2018-10-16T04:26:58.993Z,101.77
2018-10-16T04:29:28.054Z,94.80
2018-10-16T04:31:59.037Z,117.73
2018-10-16T04:34:28.366Z,118.10
2018-10-16T04:36:58.384Z,100.53
2018-10-16T04:39:27.416Z,105.33
2018-10-16T04:41:57.063Z,118.20
2018-10-16T04:44:26.072Z,127.07
2018-10-16T04:46:55.588Z,133.47
2018-10-16T04:49:25.909Z,118.97
2018-10-16T04:51:56.954Z,154.70
2018-10-16T04:54:29.614Z,158.13
2018-10-16T04:57:05.733Z,147.17
2018-10-16T04:59:34.963Z,148.07
2018-10-16T05:02:04.883Z,156.20
2018-10-16T05:04:33.945Z,143.17
2018-10-16T05:07:02.969Z,174.40
2018-10-16T05:09:32.687Z,185.73
2018-10-16T05:12:03.501Z,180.13
2018-10-16T05:14:33.561Z,155.63
2018-10-16T05:17:03.553Z,168.20
2018-10-16T05:19:33.053Z,238.50
2018-10-16T05:22:02.896Z,216.00
2018-10-16T05:24:33.640Z,193.37
2018-10-16T05:27:04.184Z,160.97
2018-10-16T05:29:34.093Z,179.77
2018-10-16T05:32:03.457Z,137.63
2018-10-16T05:34:36.957Z,212.80
2018-10-16T05:37:06.921Z,138.47
2018-10-16T05:40:17.892Z,144.23
2018-10-16T05:42:49.149Z,124.83
2018-10-16T05:45:20.544Z,159.07
2018-10-16T05:47:55.052Z,157.67
2018-10-16T05:50:27.177Z,155.27
2018-10-16T05:53:02.913Z,140.17
2018-10-16T05:55:32.095Z,141.53
2018-10-16T05:58:02.555Z,119.70
2018-10-16T06:00:47.449Z,136.00
2018-10-16T06:03:17.119Z,111.70
2018-10-16T06:05:46.293Z,104.57
2018-10-16T06:08:16.437Z,89.67
2018-10-16T06:10:45.527Z,83.20
2018-10-16T06:13:15.256Z,80.93
2018-10-16T06:15:44.124Z,103.23
2018-10-16T06:18:13.186Z,75.80
2018-10-16T06:20:42.295Z,99.97
2018-10-16T06:23:12.220Z,98.43
2018-10-16T06:25:41.188Z,91.80
2018-10-16T06:28:24.008Z,99.43
2018-10-16T06:30:52.911Z,98.13
2018-10-16T06:33:24.477Z,78.37
2018-10-16T06:35:53.631Z,97.73
2018-10-16T06:38:22.552Z,109.67
2018-10-16T06:40:51.828Z,133.83
2018-10-16T06:43:21.501Z,129.93
2018-10-16T06:45:50.497Z,137.00
2018-10-16T06:48:19.614Z,146.70
2018-10-16T06:50:50.209Z,145.43
2018-10-16T06:53:19.412Z,138.83
2018-10-16T06:55:49.291Z,145.27
2018-10-16T06:58:19.165Z,144.60
2018-10-16T07:00:48.149Z,142.67
2018-10-16T07:03:17.184Z,142.07
2018-10-16T07:05:46.071Z,154.53
2018-10-16T07:08:15.659Z,151.90
2018-10-16T07:10:44.528Z,140.10
2018-10-16T07:13:13.473Z,141.60
2018-10-16T07:15:42.415Z,127.53
2018-10-16T07:18:11.245Z,125.40
2018-10-16T07:20:40.084Z,133.57
2018-10-16T07:23:09.758Z,130.20
2018-10-16T07:25:39.552Z,132.90
2018-10-16T07:28:08.618Z,137.20
2018-10-16T07:30:37.509Z,129.03
2018-10-16T07:33:08.067Z,133.87
2018-10-16T07:35:37.051Z,133.23
2018-10-16T07:38:06.243Z,149.43
2018-10-16T07:40:35.019Z,139.27
2018-10-16T07:43:04.150Z,141.87
2018-10-16T07:45:33.368Z,138.17
2018-10-16T07:48:04.409Z,137.33
2018-10-16T07:50:33.442Z,141.17
2018-10-16T07:53:02.654Z,141.73
2018-10-16T07:55:31.590Z,120.87
2018-10-16T07:58:00.562Z,113.87
2018-10-16T08:00:30.670Z,111.10
2018-10-16T08:02:59.581Z,112.10
2018-10-16T08:05:28.469Z,115.90
2018-10-16T08:08:01.864Z,100.13
2018-10-16T08:10:31.620Z,97.97
2018-10-16T08:13:00.711Z,95.03
2018-10-16T08:15:29.625Z,93.60
2018-10-16T08:17:58.556Z,90.47
2018-10-16T08:20:27.435Z,90.67
2018-10-16T08:22:56.339Z,87.87
2018-10-16T08:25:25.938Z,89.70
2018-10-16T08:27:55.876Z,86.73
2018-10-16T08:30:24.824Z,83.37
2018-10-16T08:32:54.676Z,82.20
2018-10-16T08:35:23.632Z,76.00
2018-10-16T08:40:02.928Z,78.70
2018-10-16T08:42:42.872Z,71.17
2018-10-16T08:45:23.316Z,74.03
2018-10-16T08:48:03.780Z,74.73
2018-10-16T08:50:45.683Z,71.70
2018-10-16T08:53:14.594Z,70.00
2018-10-16T08:55:43.559Z,67.23
2018-10-16T08:58:12.640Z,65.67
2018-10-16T09:00:41.444Z,61.27
2018-10-16T09:03:10.419Z,65.20
2018-10-16T09:05:39.331Z,60.53
2018-10-16T09:08:10.146Z,54.07
2018-10-16T09:10:39.782Z,59.20
2018-10-16T09:13:08.779Z,61.03
2018-10-16T09:15:42.277Z,58.90
2018-10-16T09:18:11.264Z,53.60
2018-10-16T09:20:42.408Z,52.53
2018-10-16T09:23:11.442Z,49.87
2018-10-16T09:25:41.238Z,52.30
2018-10-16T09:28:10.234Z,47.10
2018-10-16T09:30:42.488Z,48.43
2018-10-16T09:33:14.541Z,46.90
2018-10-16T09:35:46.303Z,49.30
2018-10-16T09:38:16.375Z,47.10
2018-10-16T09:40:47.426Z,45.07
2018-10-16T09:43:17.790Z,45.77
2018-10-16T09:45:47.935Z,45.23
2018-10-16T09:48:20.874Z,45.80
2018-10-16T09:50:51.142Z,44.00
2018-10-16T09:53:21.062Z,40.53
2018-10-16T09:55:50.943Z,42.40
2018-10-16T09:58:21.155Z,44.90
2018-10-16T10:00:56.559Z,41.80
2018-10-16T10:03:25.680Z,47.30
2018-10-16T10:05:55.693Z,40.60
2018-10-16T10:08:27.274Z,36.93
2018-10-16T10:10:56.652Z,38.43
2018-10-16T10:13:26.961Z,38.67
2018-10-16T10:16:03.296Z,32.07
2018-10-16T10:18:33.529Z,33.63
2018-10-16T10:21:04.161Z,36.37
2018-10-16T10:23:39.208Z,32.87
2018-10-16T10:26:08.800Z,36.53
2018-10-16T10:28:43.846Z,35.40
2018-10-16T10:31:13.136Z,30.13
2018-10-16T10:33:42.318Z,36.70
2018-10-16T10:36:13.429Z,30.20
2018-10-16T10:38:43.851Z,32.83
2018-10-16T10:41:13.846Z,35.13
2018-10-16T10:43:46.093Z,30.13
2018-10-16T10:46:15.132Z,35.68
2018-10-16T10:48:44.052Z,30.47
2018-10-16T10:51:13.149Z,29.97
2018-10-16T10:53:41.836Z,33.67
2018-10-16T10:56:10.735Z,32.83
2018-10-16T10:58:40.417Z,31.20
2018-10-16T11:01:09.392Z,26.27
2018-10-16T11:03:38.358Z,43.83
2018-10-16T11:06:07.536Z,32.70
2018-10-16T11:08:36.438Z,32.10
2018-10-16T11:11:06.444Z,35.90
2018-10-16T11:13:35.610Z,31.20
2018-10-16T11:16:06.235Z,29.23
2018-10-16T11:18:35.289Z,30.07
2018-10-16T11:21:05.194Z,26.43
2018-10-16T11:23:34.292Z,24.63
2018-10-16T11:26:03.274Z,22.03
2018-10-16T11:28:32.311Z,28.63
2018-10-16T11:31:01.265Z,28.50
2018-10-16T11:33:30.301Z,33.17
2018-10-16T11:35:59.239Z,24.90
2018-10-16T11:38:28.195Z,25.43
2018-10-16T11:40:57.026Z,23.97
2018-10-16T11:43:26.117Z,35.60
2018-10-16T11:45:55.479Z,27.67
2018-10-16T11:48:24.450Z,20.57
2018-10-16T11:50:57.605Z,20.87
2018-10-16T11:53:26.614Z,27.50
2018-10-16T11:55:56.646Z,17.20
2018-10-16T11:58:25.714Z,24.57
2018-10-16T12:00:54.500Z,19.67
2018-10-16T12:03:23.347Z,26.70
2018-10-16T12:05:52.386Z,20.72
2018-10-16T12:08:21.307Z,29.87
2018-10-16T12:10:50.304Z,22.05
2018-10-16T12:13:19.217Z,24.43
2018-10-16T12:15:48.244Z,20.37
2018-10-16T12:18:25.782Z,23.55
2018-10-16T12:21:01.198Z,23.80
2018-10-16T12:23:33.397Z,20.53
2018-10-16T12:26:03.601Z,22.43
2018-10-16T12:28:33.725Z,20.87
2018-10-16T12:31:20.902Z,16.15
2018-10-16T12:34:04.095Z,17.67
2018-10-16T12:36:35.832Z,15.37
2018-10-16T12:39:13.464Z,10.17
2018-10-16T12:41:45.258Z,7.87
2018-10-16T12:44:14.424Z,11.27
2018-10-16T12:46:43.415Z,13.07
2018-10-16T12:49:12.363Z,10.77
2018-10-16T12:51:41.323Z,6.50
2018-10-16T12:54:10.398Z,9.33
2018-10-16T12:56:39.301Z,9.28
2018-10-16T12:59:10.139Z,10.03
2018-10-16T13:01:39.014Z,9.33
2018-10-16T13:04:08.458Z,9.30
2018-10-16T13:06:37.430Z,9.70
2018-10-16T13:09:09.672Z,8.10
2018-10-16T13:11:41.187Z,11.05
2018-10-16T13:14:13.591Z,10.20
2018-10-16T13:16:42.652Z,5.93
2018-10-16T13:19:13.253Z,7.80
2018-10-16T13:21:42.682Z,6.20
2018-10-16T13:24:11.857Z,8.90
2018-10-16T13:26:42.362Z,10.70
2018-10-16T13:29:18.600Z,9.50
2018-10-16T13:31:48.439Z,8.65
2018-10-16T13:34:18.235Z,7.53
2018-10-16T13:36:50.683Z,6.55
2018-10-16T13:39:22.769Z,7.87
2018-10-16T13:41:55.276Z,6.78
2018-10-16T13:44:25.943Z,7.45
2018-10-16T13:46:56.322Z,6.67
2018-10-16T13:49:27.620Z,10.25
2018-10-16T13:51:59.070Z,7.17
2018-10-16T13:54:28.232Z,9.03
2018-10-16T13:57:02.012Z,7.20
2018-10-16T13:59:31.422Z,10.17
2018-10-16T14:02:00.855Z,8.20
2018-10-16T14:04:30.026Z,9.58
2018-10-16T14:06:59.074Z,8.15
2018-10-16T14:09:28.234Z,9.50
2018-10-16T14:11:57.333Z,5.78
2018-10-16T14:14:26.378Z,7.75
2018-10-16T14:16:55.406Z,8.10
2018-10-16T14:22:11.369Z,8.35
2018-10-16T14:24:40.424Z,8.18
2018-10-16T14:27:09.605Z,9.18
2018-10-16T14:29:39.211Z,17.43
2018-10-16T14:32:15.241Z,10.90
2018-10-16T14:35:16.147Z,10.20
2018-10-16T14:38:30.910Z,10.05
2018-10-16T14:40:59.869Z,30.08
2018-10-16T14:43:30.859Z,10.20
2018-10-16T14:48:04.198Z,8.43
2018-10-16T14:50:44.268Z,8.68
2018-10-16T14:53:27.015Z,8.08
2018-10-16T14:56:02.385Z,7.57
2018-10-16T15:09:28.592Z,7.57
2018-10-16T15:11:59.238Z,10.37
2018-10-16T15:14:30.740Z,9.60
2018-10-16T15:17:01.668Z,8.73
2018-10-16T15:19:36.112Z,8.83
2018-10-16T15:22:08.450Z,6.47
2018-10-16T15:24:39.198Z,11.67
2018-10-16T15:27:09.725Z,8.08
2018-10-16T15:29:39.172Z,8.98
2018-10-16T15:32:09.737Z,9.40
2018-10-16T15:34:39.255Z,11.50
2018-10-16T15:37:08.768Z,11.03
2018-10-16T15:39:37.710Z,9.40
2018-10-16T15:42:06.844Z,8.40
2018-10-16T15:44:36.892Z,6.15
2018-10-16T15:47:08.438Z,10.87
2018-10-16T16:21:07.815Z,8.80
2018-10-16T16:23:38.235Z,8.67
2018-10-16T16:26:10.429Z,9.90
2018-10-16T16:29:01.828Z,9.93
2018-10-16T16:35:25.727Z,15.57
2018-10-16T16:37:57.912Z,18.23
2018-10-16T16:54:42.660Z,11.03
2018-10-16T16:57:14.619Z,13.10
2018-10-16T16:59:49.262Z,12.60
2018-10-16T17:02:24.917Z,12.50
2018-10-16T17:04:55.915Z,11.60
2018-10-16T17:07:27.822Z,17.03
2018-10-16T17:10:01.200Z,13.30
2018-10-16T17:12:30.518Z,15.93
2018-10-16T17:14:59.380Z,15.90
2018-10-16T17:17:30.858Z,16.07
2018-10-16T17:20:01.071Z,16.03
2018-10-16T17:22:31.694Z,15.67
2018-10-16T17:25:32.097Z,20.13
2018-10-16T17:31:06.795Z,18.30
2018-10-16T17:33:41.681Z,14.40
2018-10-16T17:36:18.994Z,18.70
2018-10-16T17:38:58.088Z,16.27
2018-10-16T17:44:30.542Z,18.33
2018-10-16T17:47:01.172Z,18.33
2018-10-16T17:49:31.851Z,18.83
2018-10-16T17:52:03.094Z,19.73
2018-10-16T17:54:33.181Z,19.17
2018-10-16T17:57:05.569Z,16.57
2018-10-16T17:59:35.258Z,21.53
2018-10-16T18:02:06.062Z,19.23
2018-10-16T18:04:36.480Z,18.70
2018-10-16T18:07:06.262Z,19.20
2018-10-16T18:09:41.457Z,18.87
2018-10-16T18:12:15.975Z,17.83
2018-10-16T18:14:45.951Z,21.50
2018-10-16T18:17:19.120Z,17.30
2018-10-16T18:20:13.962Z,24.00
2018-10-16T18:22:43.677Z,19.07
2018-10-16T18:25:13.902Z,17.87
2018-10-16T18:27:44.582Z,20.40
2018-10-16T18:30:16.545Z,16.70
2018-10-16T18:33:12.098Z,18.00
2018-10-16T18:35:43.820Z,21.17
2018-10-16T18:38:17.465Z,21.53
2018-10-16T18:41:01.771Z,21.33
2018-10-16T18:43:31.832Z,22.70
2018-10-16T18:46:01.599Z,20.30
2018-10-16T18:51:12.011Z,19.77
2018-10-16T18:53:49.559Z,22.40
2018-10-16T18:56:19.337Z,18.93
2018-10-16T18:58:50.905Z,19.30
2018-10-16T19:01:21.877Z,17.83
2018-10-16T19:03:55.156Z,34.07
2018-10-16T19:06:27.847Z,27.37
2018-10-16T19:09:00.288Z,34.90
2018-10-16T19:11:31.510Z,29.57
2018-10-16T19:14:01.569Z,24.63
2018-10-16T19:16:32.696Z,26.47
2018-10-16T19:19:03.986Z,29.27
2018-10-16T19:21:36.229Z,32.00
2018-10-16T19:24:10.688Z,28.10
2018-10-16T19:26:41.740Z,23.47
2018-10-16T19:29:12.236Z,29.17
2018-10-16T19:31:41.993Z,29.10
2018-10-16T19:34:17.016Z,22.83
2018-10-16T19:36:48.518Z,31.13
2018-10-16T19:43:16.248Z,29.60
2018-10-16T19:45:48.242Z,28.57
2018-10-16T19:48:29.235Z,27.80
2018-10-16T19:51:03.274Z,26.23
2018-10-16T19:53:35.592Z,29.00
2018-10-16T19:56:10.544Z,27.10
2018-10-16T19:58:47.131Z,24.50
2018-10-16T20:01:19.030Z,25.13
2018-10-16T20:03:50.684Z,28.13
2018-10-16T20:06:37.935Z,27.23
2018-10-16T20:09:12.766Z,28.37
2018-10-16T20:11:46.749Z,28.20
2018-10-16T20:14:17.856Z,25.57
2018-10-16T20:16:50.974Z,27.97
2018-10-16T20:19:22.216Z,31.27
2018-10-16T20:21:56.231Z,28.07
2018-10-16T20:24:30.641Z,32.20
2018-10-16T20:27:10.617Z,28.93
2018-10-16T20:29:42.476Z,30.40
2018-10-16T20:32:18.583Z,31.33
2018-10-16T20:34:55.495Z,32.57
2018-10-16T20:37:27.155Z,35.63
2018-10-16T20:39:57.783Z,37.77
2018-10-16T20:42:27.473Z,41.80
2018-10-16T20:45:00.880Z,43.60
2018-10-16T20:47:34.983Z,45.83
2018-10-16T20:50:04.034Z,40.67
2018-10-16T20:55:14.560Z,43.23
2018-10-16T20:57:48.308Z,51.20
2018-10-16T21:00:19.755Z,44.90
2018-10-16T21:02:52.482Z,43.87
2018-10-16T21:05:23.500Z,44.37
2018-10-16T21:07:53.961Z,44.13
2018-10-16T21:10:23.340Z,46.57
2018-10-16T21:12:52.470Z,45.30
2018-10-16T21:15:25.547Z,50.10
2018-10-16T21:17:59.983Z,50.20
2018-10-16T21:20:31.601Z,48.47
2018-10-16T21:23:01.790Z,45.07
2018-10-16T21:25:33.328Z,44.87
2018-10-16T21:28:03.589Z,42.43
2018-10-16T21:30:41.738Z,44.80
2018-10-16T21:33:12.423Z,46.20
2018-10-16T21:35:42.969Z,41.90
2018-10-16T21:38:16.727Z,42.77
2018-10-16T21:40:55.030Z,41.53
2018-10-16T21:43:26.108Z,44.43
2018-10-16T21:45:59.133Z,51.37
2018-10-16T21:48:33.362Z,46.97
2018-10-16T21:51:05.722Z,40.17
2018-10-16T21:53:37.995Z,43.43
2018-10-16T21:56:09.957Z,46.97
2018-10-16T21:58:40.594Z,41.97
2018-10-16T22:01:11.897Z,47.33
2018-10-16T22:03:42.260Z,44.20
2018-10-16T22:06:15.061Z,39.90
2018-10-16T22:08:47.209Z,40.77
2018-10-16T22:11:17.611Z,43.97
2018-10-16T22:13:48.675Z,44.03
2018-10-16T22:16:19.214Z,41.67
2018-10-16T22:18:49.844Z,39.50
2018-10-16T22:21:19.858Z,43.80
2018-10-16T22:23:50.841Z,39.87
2018-10-16T22:26:21.018Z,45.50
2018-10-16T22:28:58.296Z,39.70
2018-10-16T22:31:32.201Z,38.67
2018-10-16T22:34:03.263Z,43.60
2018-10-16T22:36:33.801Z,43.70
2018-10-16T22:39:06.456Z,48.87
2018-10-16T22:41:38.740Z,38.40
2018-10-16T22:44:08.698Z,39.63
2018-10-16T22:46:38.902Z,43.50
2018-10-16T22:49:12.969Z,44.27
2018-10-16T22:51:44.521Z,42.00
2018-10-16T22:54:14.538Z,40.67
2018-10-16T22:56:45.089Z,42.57
2018-10-16T22:59:15.400Z,42.57
2018-10-16T23:01:45.784Z,42.73
2018-10-16T23:04:15.772Z,49.73
2018-10-16T23:28:09.080Z,46.83
2018-10-16T23:30:41.541Z,45.50
2018-10-16T23:33:10.797Z,51.80
2018-10-16T23:35:40.335Z,45.43
2018-10-16T23:41:45.632Z,53.10
2018-10-16T23:44:14.778Z,42.23
2018-10-16T23:46:45.356Z,47.87
2018-10-16T23:49:15.438Z,42.60
2018-10-16T23:51:49.473Z,44.03
2018-10-16T23:54:18.864Z,45.47
2018-10-16T23:56:49.679Z,44.17
2018-10-16T23:59:21.085Z,47.93
